sensor_id;sensor_type;location;lat;lon;timestamp;temperature;humidity
40255;DHT22;25973;52.368;4.940;2022-12-07T00:01:30;7.50;99.90
40255;DHT22;25973;52.368;4.940;2022-12-07T00:03:58;7.50;99.90
40255;DHT22;25973;52.368;4.940;2022-12-07T00:06:30;7.50;99.90
40255;DHT22;25973;52.368;4.940;2022-12-07T00:08:56;7.40;99.90
40255;DHT22;25973;52.368;4.940;2022-12-07T00:11:22;7.40;99.90
40255;DHT22;25973;52.368;4.940;2022-12-07T00:13:53;7.40;99.90
40255;DHT22;25973;52.368;4.940;2022-12-07T00:16:24;7.40;99.90
40255;DHT22;25973;52.368;4.940;2022-12-07T00:18:49;7.40;99.90
40255;DHT22;25973;52.368;4.940;2022-12-07T00:21:24;7.40;99.90
40255;DHT22;25973;52.368;4.940;2022-12-07T00:23:51;7.30;99.90
40255;DHT22;25973;52.368;4.940;2022-12-07T00:26:28;7.40;99.90
40255;DHT22;25973;52.368;4.940;2022-12-07T00:28:56;7.30;99.90
40255;DHT22;25973;52.368;4.940;2022-12-07T00:31:25;7.40;99.90
40255;DHT22;25973;52.368;4.940;2022-12-07T00:33:51;7.40;99.90
40255;DHT22;25973;52.368;4.940;2022-12-07T00:36:20;7.40;99.90
40255;DHT22;25973;52.368;4.940;2022-12-07T00:38:46;7.40;99.90
40255;DHT22;25973;52.368;4.940;2022-12-07T00:41:14;7.40;99.90
40255;DHT22;25973;52.368;4.940;2022-12-07T00:43:41;7.40;99.90
40255;DHT22;25973;52.368;4.940;2022-12-07T00:46:08;7.40;99.90
40255;DHT22;25973;52.368;4.940;2022-12-07T00:48:33;7.40;99.90
40255;DHT22;25973;52.368;4.940;2022-12-07T00:51:00;7.30;99.90
40255;DHT22;25973;52.368;4.940;2022-12-07T00:53:26;7.30;99.90
40255;DHT22;25973;52.368;4.940;2022-12-07T00:55:52;7.30;99.90
40255;DHT22;25973;52.368;4.940;2022-12-07T00:58:18;7.30;99.90
40255;DHT22;25973;52.368;4.940;2022-12-07T01:00:45;7.30;99.90
40255;DHT22;25973;52.368;4.940;2022-12-07T01:03:12;7.30;99.90
40255;DHT22;25973;52.368;4.940;2022-12-07T01:05:39;7.30;99.90
40255;DHT22;25973;52.368;4.940;2022-12-07T01:08:05;7.30;99.90
40255;DHT22;25973;52.368;4.940;2022-12-07T01:10:31;7.30;99.90
40255;DHT22;25973;52.368;4.940;2022-12-07T01:12:57;7.30;99.90
40255;DHT22;25973;52.368;4.940;2022-12-07T01:15:24;7.30;99.90
40255;DHT22;25973;52.368;4.940;2022-12-07T01:17:49;7.30;99.90
40255;DHT22;25973;52.368;4.940;2022-12-07T01:20:15;7.30;99.90
40255;DHT22;25973;52.368;4.940;2022-12-07T01:22:42;7.30;99.90
40255;DHT22;25973;52.368;4.940;2022-12-07T01:25:08;7.20;99.90
40255;DHT22;25973;52.368;4.940;2022-12-07T01:27:35;7.30;99.90
40255;DHT22;25973;52.368;4.940;2022-12-07T01:30:03;7.30;99.90
40255;DHT22;25973;52.368;4.940;2022-12-07T01:32:29;7.30;99.90
40255;DHT22;25973;52.368;4.940;2022-12-07T01:34:55;7.30;99.90
40255;DHT22;25973;52.368;4.940;2022-12-07T01:37:20;7.30;99.90
40255;DHT22;25973;52.368;4.940;2022-12-07T01:39:49;7.40;99.90
40255;DHT22;25973;52.368;4.940;2022-12-07T01:42:14;7.40;99.90
40255;DHT22;25973;52.368;4.940;2022-12-07T01:45:20;7.40;99.90
40255;DHT22;25973;52.368;4.940;2022-12-07T01:47:57;7.50;99.90
40255;DHT22;25973;52.368;4.940;2022-12-07T01:50:26;7.50;99.90
40255;DHT22;25973;52.368;4.940;2022-12-07T01:52:55;7.50;99.90
40255;DHT22;25973;52.368;4.940;2022-12-07T01:55:21;7.50;99.90
40255;DHT22;25973;52.368;4.940;2022-12-07T01:57:49;7.50;99.90
40255;DHT22;25973;52.368;4.940;2022-12-07T02:00:17;7.50;99.90
40255;DHT22;25973;52.368;4.940;2022-12-07T02:05:23;7.50;99.90
40255;DHT22;25973;52.368;4.940;2022-12-07T02:07:51;7.50;99.90
40255;DHT22;25973;52.368;4.940;2022-12-07T02:10:24;7.50;99.90
40255;DHT22;25973;52.368;4.940;2022-12-07T02:13:02;7.50;99.90
40255;DHT22;25973;52.368;4.940;2022-12-07T02:16:19;7.50;99.90
40255;DHT22;25973;52.368;4.940;2022-12-07T02:29:00;7.30;99.90
40255;DHT22;25973;52.368;4.940;2022-12-07T02:31:33;7.30;99.90
40255;DHT22;25973;52.368;4.940;2022-12-07T02:34:11;7.30;99.90
40255;DHT22;25973;52.368;4.940;2022-12-07T02:36:44;7.30;99.90
40255;DHT22;25973;52.368;4.940;2022-12-07T02:39:31;7.30;99.90
40255;DHT22;25973;52.368;4.940;2022-12-07T02:42:04;7.20;99.90
40255;DHT22;25973;52.368;4.940;2022-12-07T02:44:33;7.20;99.90
40255;DHT22;25973;52.368;4.940;2022-12-07T02:47:03;7.20;99.90
40255;DHT22;25973;52.368;4.940;2022-12-07T02:49:33;7.10;99.90
40255;DHT22;25973;52.368;4.940;2022-12-07T02:51:59;7.10;99.90
40255;DHT22;25973;52.368;4.940;2022-12-07T02:54:24;7.00;99.90
40255;DHT22;25973;52.368;4.940;2022-12-07T02:59:40;7.00;99.90
40255;DHT22;25973;52.368;4.940;2022-12-07T03:05:10;7.00;99.90
40255;DHT22;25973;52.368;4.940;2022-12-07T03:07:51;7.00;99.90
40255;DHT22;25973;52.368;4.940;2022-12-07T03:15:46;7.00;99.90
40255;DHT22;25973;52.368;4.940;2022-12-07T03:18:16;7.00;99.90
40255;DHT22;25973;52.368;4.940;2022-12-07T03:20:44;7.00;99.90
40255;DHT22;25973;52.368;4.940;2022-12-07T03:23:12;7.00;99.90
40255;DHT22;25973;52.368;4.940;2022-12-07T03:25:42;7.10;99.90
40255;DHT22;25973;52.368;4.940;2022-12-07T03:28:12;7.10;99.90
40255;DHT22;25973;52.368;4.940;2022-12-07T03:30:48;7.10;99.90
40255;DHT22;25973;52.368;4.940;2022-12-07T03:33:24;7.10;99.90
40255;DHT22;25973;52.368;4.940;2022-12-07T03:38:28;7.20;99.90
40255;DHT22;25973;52.368;4.940;2022-12-07T03:41:01;7.20;99.90
40255;DHT22;25973;52.368;4.940;2022-12-07T03:43:32;7.20;99.90
40255;DHT22;25973;52.368;4.940;2022-12-07T03:46:09;7.20;99.90
40255;DHT22;25973;52.368;4.940;2022-12-07T03:49:11;7.20;99.90
40255;DHT22;25973;52.368;4.940;2022-12-07T03:54:37;7.20;99.90
40255;DHT22;25973;52.368;4.940;2022-12-07T03:57:05;7.20;99.90
40255;DHT22;25973;52.368;4.940;2022-12-07T03:59:31;7.20;99.90
40255;DHT22;25973;52.368;4.940;2022-12-07T04:02:02;7.20;99.90
40255;DHT22;25973;52.368;4.940;2022-12-07T04:04:28;7.10;99.90
40255;DHT22;25973;52.368;4.940;2022-12-07T04:06:54;7.10;99.90
40255;DHT22;25973;52.368;4.940;2022-12-07T04:09:20;7.10;99.90
40255;DHT22;25973;52.368;4.940;2022-12-07T04:11:46;7.10;99.90
40255;DHT22;25973;52.368;4.940;2022-12-07T04:14:11;7.10;99.90
40255;DHT22;25973;52.368;4.940;2022-12-07T04:16:54;7.10;99.90
40255;DHT22;25973;52.368;4.940;2022-12-07T04:19:25;7.10;99.90
40255;DHT22;25973;52.368;4.940;2022-12-07T04:21:51;7.10;99.90
40255;DHT22;25973;52.368;4.940;2022-12-07T04:24:17;7.10;99.90
40255;DHT22;25973;52.368;4.940;2022-12-07T04:26:43;7.10;99.90
40255;DHT22;25973;52.368;4.940;2022-12-07T04:29:10;7.00;99.90
40255;DHT22;25973;52.368;4.940;2022-12-07T04:31:36;7.00;99.90
40255;DHT22;25973;52.368;4.940;2022-12-07T04:34:02;7.00;99.90
40255;DHT22;25973;52.368;4.940;2022-12-07T04:36:28;7.10;99.90
40255;DHT22;25973;52.368;4.940;2022-12-07T04:38:54;7.10;99.90
40255;DHT22;25973;52.368;4.940;2022-12-07T04:41:20;7.10;99.90
40255;DHT22;25973;52.368;4.940;2022-12-07T04:43:55;7.10;99.90
40255;DHT22;25973;52.368;4.940;2022-12-07T04:46:22;7.00;99.90
40255;DHT22;25973;52.368;4.940;2022-12-07T04:48:47;7.00;99.90
40255;DHT22;25973;52.368;4.940;2022-12-07T04:51:16;7.00;99.90
40255;DHT22;25973;52.368;4.940;2022-12-07T04:53:43;7.00;99.90
40255;DHT22;25973;52.368;4.940;2022-12-07T04:56:09;6.90;99.90
40255;DHT22;25973;52.368;4.940;2022-12-07T04:58:34;6.90;99.90
40255;DHT22;25973;52.368;4.940;2022-12-07T05:01:00;6.90;99.90
40255;DHT22;25973;52.368;4.940;2022-12-07T05:03:25;6.90;99.90
40255;DHT22;25973;52.368;4.940;2022-12-07T05:05:51;6.80;99.90
40255;DHT22;25973;52.368;4.940;2022-12-07T05:08:16;6.90;99.90
40255;DHT22;25973;52.368;4.940;2022-12-07T05:10:42;6.80;99.90
40255;DHT22;25973;52.368;4.940;2022-12-07T05:13:07;6.90;99.90
40255;DHT22;25973;52.368;4.940;2022-12-07T05:15:36;6.90;99.90
40255;DHT22;25973;52.368;4.940;2022-12-07T05:18:02;6.80;99.90
40255;DHT22;25973;52.368;4.940;2022-12-07T05:20:28;6.80;99.90
40255;DHT22;25973;52.368;4.940;2022-12-07T05:22:54;6.80;99.90
40255;DHT22;25973;52.368;4.940;2022-12-07T05:25:19;6.80;99.90
40255;DHT22;25973;52.368;4.940;2022-12-07T05:27:45;6.80;99.90
40255;DHT22;25973;52.368;4.940;2022-12-07T05:30:11;6.80;99.90
40255;DHT22;25973;52.368;4.940;2022-12-07T05:32:36;6.80;99.90
40255;DHT22;25973;52.368;4.940;2022-12-07T05:35:02;6.80;99.90
40255;DHT22;25973;52.368;4.940;2022-12-07T05:37:28;6.70;99.90
40255;DHT22;25973;52.368;4.940;2022-12-07T05:39:53;6.70;99.90
40255;DHT22;25973;52.368;4.940;2022-12-07T05:42:19;6.80;99.90
40255;DHT22;25973;52.368;4.940;2022-12-07T05:44:46;6.80;99.90
40255;DHT22;25973;52.368;4.940;2022-12-07T05:47:13;6.80;99.90
40255;DHT22;25973;52.368;4.940;2022-12-07T05:49:40;6.70;99.90
40255;DHT22;25973;52.368;4.940;2022-12-07T05:52:06;6.70;99.90
40255;DHT22;25973;52.368;4.940;2022-12-07T05:54:32;6.70;99.90
40255;DHT22;25973;52.368;4.940;2022-12-07T05:56:58;6.70;99.90
40255;DHT22;25973;52.368;4.940;2022-12-07T05:59:24;6.70;99.90
40255;DHT22;25973;52.368;4.940;2022-12-07T06:02:00;6.70;99.90
40255;DHT22;25973;52.368;4.940;2022-12-07T06:04:31;6.70;99.90
40255;DHT22;25973;52.368;4.940;2022-12-07T06:06:57;6.70;99.90
40255;DHT22;25973;52.368;4.940;2022-12-07T06:09:24;6.70;99.90
40255;DHT22;25973;52.368;4.940;2022-12-07T06:11:50;6.70;99.90
40255;DHT22;25973;52.368;4.940;2022-12-07T06:14:34;6.70;99.90
40255;DHT22;25973;52.368;4.940;2022-12-07T06:17:00;6.70;99.90
40255;DHT22;25973;52.368;4.940;2022-12-07T06:19:25;6.80;99.90
40255;DHT22;25973;52.368;4.940;2022-12-07T06:21:51;6.70;99.90
40255;DHT22;25973;52.368;4.940;2022-12-07T06:24:17;6.70;99.90
40255;DHT22;25973;52.368;4.940;2022-12-07T06:26:44;6.70;99.90
40255;DHT22;25973;52.368;4.940;2022-12-07T06:29:10;6.70;99.90
40255;DHT22;25973;52.368;4.940;2022-12-07T06:31:37;6.70;99.90
40255;DHT22;25973;52.368;4.940;2022-12-07T06:34:05;6.60;99.90
40255;DHT22;25973;52.368;4.940;2022-12-07T06:36:31;6.60;99.90
40255;DHT22;25973;52.368;4.940;2022-12-07T06:38:57;6.60;99.90
40255;DHT22;25973;52.368;4.940;2022-12-07T06:41:23;6.60;99.90
40255;DHT22;25973;52.368;4.940;2022-12-07T06:43:48;6.60;99.90
40255;DHT22;25973;52.368;4.940;2022-12-07T06:46:15;6.60;99.90
40255;DHT22;25973;52.368;4.940;2022-12-07T06:48:41;6.60;99.90
40255;DHT22;25973;52.368;4.940;2022-12-07T06:51:08;6.50;99.90
40255;DHT22;25973;52.368;4.940;2022-12-07T06:53:33;6.50;99.90
40255;DHT22;25973;52.368;4.940;2022-12-07T06:55:59;6.50;99.90
40255;DHT22;25973;52.368;4.940;2022-12-07T06:58:25;6.50;99.90
40255;DHT22;25973;52.368;4.940;2022-12-07T07:00:50;6.60;99.90
40255;DHT22;25973;52.368;4.940;2022-12-07T07:03:16;6.50;99.90
40255;DHT22;25973;52.368;4.940;2022-12-07T07:05:43;6.50;99.90
40255;DHT22;25973;52.368;4.940;2022-12-07T07:08:09;6.50;99.90
40255;DHT22;25973;52.368;4.940;2022-12-07T07:10:35;6.50;99.90
40255;DHT22;25973;52.368;4.940;2022-12-07T07:13:00;6.50;99.90
40255;DHT22;25973;52.368;4.940;2022-12-07T07:15:26;6.50;99.90
40255;DHT22;25973;52.368;4.940;2022-12-07T07:17:52;6.50;99.90
40255;DHT22;25973;52.368;4.940;2022-12-07T07:20:18;6.50;99.90
40255;DHT22;25973;52.368;4.940;2022-12-07T07:22:43;6.50;99.90
40255;DHT22;25973;52.368;4.940;2022-12-07T07:25:09;6.50;99.90
40255;DHT22;25973;52.368;4.940;2022-12-07T07:27:34;6.50;99.90
40255;DHT22;25973;52.368;4.940;2022-12-07T07:30:00;6.50;99.90
40255;DHT22;25973;52.368;4.940;2022-12-07T07:32:26;6.50;99.90
40255;DHT22;25973;52.368;4.940;2022-12-07T07:34:51;6.50;99.90
40255;DHT22;25973;52.368;4.940;2022-12-07T07:37:17;6.50;99.90
40255;DHT22;25973;52.368;4.940;2022-12-07T07:39:42;6.50;99.90
40255;DHT22;25973;52.368;4.940;2022-12-07T07:42:08;6.50;99.90
40255;DHT22;25973;52.368;4.940;2022-12-07T07:44:36;6.50;99.90
40255;DHT22;25973;52.368;4.940;2022-12-07T07:47:03;6.50;99.90
40255;DHT22;25973;52.368;4.940;2022-12-07T07:49:29;6.50;99.90
40255;DHT22;25973;52.368;4.940;2022-12-07T07:51:54;6.60;99.90
40255;DHT22;25973;52.368;4.940;2022-12-07T07:54:20;6.60;99.90
40255;DHT22;25973;52.368;4.940;2022-12-07T07:56:45;6.60;99.90
40255;DHT22;25973;52.368;4.940;2022-12-07T07:59:11;6.60;99.90
40255;DHT22;25973;52.368;4.940;2022-12-07T08:01:36;6.60;99.90
40255;DHT22;25973;52.368;4.940;2022-12-07T08:04:02;6.70;99.90
40255;DHT22;25973;52.368;4.940;2022-12-07T08:06:27;6.70;99.90
40255;DHT22;25973;52.368;4.940;2022-12-07T08:08:53;6.70;99.90
40255;DHT22;25973;52.368;4.940;2022-12-07T08:11:19;6.80;99.90
40255;DHT22;25973;52.368;4.940;2022-12-07T08:13:45;6.80;99.90
40255;DHT22;25973;52.368;4.940;2022-12-07T08:16:12;6.90;99.90
40255;DHT22;25973;52.368;4.940;2022-12-07T08:18:39;6.90;99.90
40255;DHT22;25973;52.368;4.940;2022-12-07T08:21:06;6.90;99.90
40255;DHT22;25973;52.368;4.940;2022-12-07T08:23:33;6.90;99.90
40255;DHT22;25973;52.368;4.940;2022-12-07T08:26:07;6.90;99.90
40255;DHT22;25973;52.368;4.940;2022-12-07T08:28:33;6.90;99.90
40255;DHT22;25973;52.368;4.940;2022-12-07T08:31:07;6.90;99.90
40255;DHT22;25973;52.368;4.940;2022-12-07T08:33:36;7.00;99.90
40255;DHT22;25973;52.368;4.940;2022-12-07T08:36:12;7.00;99.90
40255;DHT22;25973;52.368;4.940;2022-12-07T08:38:39;7.00;99.90
40255;DHT22;25973;52.368;4.940;2022-12-07T08:41:06;7.00;99.90
40255;DHT22;25973;52.368;4.940;2022-12-07T08:43:32;7.10;99.90
40255;DHT22;25973;52.368;4.940;2022-12-07T08:48:32;7.10;99.90
40255;DHT22;25973;52.368;4.940;2022-12-07T08:50:58;7.20;99.90
40255;DHT22;25973;52.368;4.940;2022-12-07T08:53:24;7.20;99.90
40255;DHT22;25973;52.368;4.940;2022-12-07T08:55:49;7.30;99.90
40255;DHT22;25973;52.368;4.940;2022-12-07T08:58:15;7.30;99.90
40255;DHT22;25973;52.368;4.940;2022-12-07T09:00:41;7.30;99.90
40255;DHT22;25973;52.368;4.940;2022-12-07T09:03:07;7.40;99.90
40255;DHT22;25973;52.368;4.940;2022-12-07T09:05:33;7.40;99.90
40255;DHT22;25973;52.368;4.940;2022-12-07T09:08:00;7.40;99.90
40255;DHT22;25973;52.368;4.940;2022-12-07T09:10:27;7.50;99.90
40255;DHT22;25973;52.368;4.940;2022-12-07T09:12:53;7.60;99.90
40255;DHT22;25973;52.368;4.940;2022-12-07T09:15:18;7.70;99.90
40255;DHT22;25973;52.368;4.940;2022-12-07T09:17:44;7.80;99.90
40255;DHT22;25973;52.368;4.940;2022-12-07T09:20:10;7.80;99.90
40255;DHT22;25973;52.368;4.940;2022-12-07T09:22:35;7.90;99.90
40255;DHT22;25973;52.368;4.940;2022-12-07T09:25:01;8.00;99.90
40255;DHT22;25973;52.368;4.940;2022-12-07T09:27:27;8.00;99.90
40255;DHT22;25973;52.368;4.940;2022-12-07T09:29:53;8.10;99.90
40255;DHT22;25973;52.368;4.940;2022-12-07T09:32:18;8.10;99.90
40255;DHT22;25973;52.368;4.940;2022-12-07T09:34:47;8.20;99.90
40255;DHT22;25973;52.368;4.940;2022-12-07T09:37:14;8.20;99.90
40255;DHT22;25973;52.368;4.940;2022-12-07T09:39:40;8.20;99.90
40255;DHT22;25973;52.368;4.940;2022-12-07T09:42:07;8.30;99.90
40255;DHT22;25973;52.368;4.940;2022-12-07T09:44:34;8.40;99.90
40255;DHT22;25973;52.368;4.940;2022-12-07T09:47:00;8.50;99.90
40255;DHT22;25973;52.368;4.940;2022-12-07T09:49:29;8.60;99.90
40255;DHT22;25973;52.368;4.940;2022-12-07T09:52:03;8.80;99.90
40255;DHT22;25973;52.368;4.940;2022-12-07T09:54:45;8.90;99.90
40255;DHT22;25973;52.368;4.940;2022-12-07T09:57:11;9.00;99.90
40255;DHT22;25973;52.368;4.940;2022-12-07T09:59:38;9.00;99.90
40255;DHT22;25973;52.368;4.940;2022-12-07T10:02:35;9.10;99.90
40255;DHT22;25973;52.368;4.940;2022-12-07T10:05:03;9.10;99.90
40255;DHT22;25973;52.368;4.940;2022-12-07T10:07:29;9.20;99.90
40255;DHT22;25973;52.368;4.940;2022-12-07T10:09:55;9.30;99.90
40255;DHT22;25973;52.368;4.940;2022-12-07T10:12:20;9.40;99.90
40255;DHT22;25973;52.368;4.940;2022-12-07T10:15:00;9.30;99.90
40255;DHT22;25973;52.368;4.940;2022-12-07T10:25:24;9.00;99.90
40255;DHT22;25973;52.368;4.940;2022-12-07T10:27:59;8.90;99.90
40255;DHT22;25973;52.368;4.940;2022-12-07T10:30:25;8.90;99.90
40255;DHT22;25973;52.368;4.940;2022-12-07T10:32:51;8.90;99.90
40255;DHT22;25973;52.368;4.940;2022-12-07T10:35:31;8.90;99.90
40255;DHT22;25973;52.368;4.940;2022-12-07T10:37:59;8.90;99.90
40255;DHT22;25973;52.368;4.940;2022-12-07T10:40:32;9.00;99.90
40255;DHT22;25973;52.368;4.940;2022-12-07T10:48:50;9.20;99.90
40255;DHT22;25973;52.368;4.940;2022-12-07T11:02:01;9.40;99.90
40255;DHT22;25973;52.368;4.940;2022-12-07T11:15:53;9.30;99.90
40255;DHT22;25973;52.368;4.940;2022-12-07T11:18:55;9.30;99.90
40255;DHT22;25973;52.368;4.940;2022-12-07T11:21:24;9.20;99.90
40255;DHT22;25973;52.368;4.940;2022-12-07T11:26:48;9.20;99.90
40255;DHT22;25973;52.368;4.940;2022-12-07T11:32:17;9.20;99.90
40255;DHT22;25973;52.368;4.940;2022-12-07T11:35:17;9.30;99.90
40255;DHT22;25973;52.368;4.940;2022-12-07T11:37:47;9.40;99.90
40255;DHT22;25973;52.368;4.940;2022-12-07T11:43:04;9.60;99.90
40255;DHT22;25973;52.368;4.940;2022-12-07T11:45:35;9.70;99.90
40255;DHT22;25973;52.368;4.940;2022-12-07T11:53:33;9.50;99.90
40255;DHT22;25973;52.368;4.940;2022-12-07T11:58:38;9.10;99.90
40255;DHT22;25973;52.368;4.940;2022-12-07T12:06:41;9.10;99.90
40255;DHT22;25973;52.368;4.940;2022-12-07T12:14:53;9.20;99.90
40255;DHT22;25973;52.368;4.940;2022-12-07T12:20:46;9.20;99.90
40255;DHT22;25973;52.368;4.940;2022-12-07T12:23:45;9.20;99.90
40255;DHT22;25973;52.368;4.940;2022-12-07T12:28:54;9.10;99.90
40255;DHT22;25973;52.368;4.940;2022-12-07T12:33:50;9.10;99.90
40255;DHT22;25973;52.368;4.940;2022-12-07T12:39:15;9.00;99.90
40255;DHT22;25973;52.368;4.940;2022-12-07T12:47:37;8.90;99.90
40255;DHT22;25973;52.368;4.940;2022-12-07T12:50:26;8.80;99.90
40255;DHT22;25973;52.368;4.940;2022-12-07T12:53:11;8.80;99.90
40255;DHT22;25973;52.368;4.940;2022-12-07T12:58:40;8.70;99.90
40255;DHT22;25973;52.368;4.940;2022-12-07T13:01:41;8.70;99.90
40255;DHT22;25973;52.368;4.940;2022-12-07T13:04:38;8.70;99.90
40255;DHT22;25973;52.368;4.940;2022-12-07T13:07:06;8.70;99.90
40255;DHT22;25973;52.368;4.940;2022-12-07T13:09:35;8.70;99.90
40255;DHT22;25973;52.368;4.940;2022-12-07T13:12:04;8.70;99.90
40255;DHT22;25973;52.368;4.940;2022-12-07T13:14:53;8.80;99.90
40255;DHT22;25973;52.368;4.940;2022-12-07T13:27:37;8.70;99.90
40255;DHT22;25973;52.368;4.940;2022-12-07T13:30:14;8.70;99.90
40255;DHT22;25973;52.368;4.940;2022-12-07T13:32:40;8.70;99.90
40255;DHT22;25973;52.368;4.940;2022-12-07T13:35:35;8.70;99.90
40255;DHT22;25973;52.368;4.940;2022-12-07T13:41:02;8.80;99.90
40255;DHT22;25973;52.368;4.940;2022-12-07T13:43:29;8.80;99.90
40255;DHT22;25973;52.368;4.940;2022-12-07T13:45:58;8.80;99.90
40255;DHT22;25973;52.368;4.940;2022-12-07T13:51:02;8.80;99.90
40255;DHT22;25973;52.368;4.940;2022-12-07T13:53:28;8.80;99.90
40255;DHT22;25973;52.368;4.940;2022-12-07T13:56:00;8.90;99.90
40255;DHT22;25973;52.368;4.940;2022-12-07T13:58:27;8.90;99.90
40255;DHT22;25973;52.368;4.940;2022-12-07T14:00:55;8.90;99.90
40255;DHT22;25973;52.368;4.940;2022-12-07T14:03:30;8.90;99.90
40255;DHT22;25973;52.368;4.940;2022-12-07T14:06:06;8.80;99.90
40255;DHT22;25973;52.368;4.940;2022-12-07T14:08:32;8.80;99.90
40255;DHT22;25973;52.368;4.940;2022-12-07T14:10:58;8.80;99.90
40255;DHT22;25973;52.368;4.940;2022-12-07T14:13:40;8.70;99.90
40255;DHT22;25973;52.368;4.940;2022-12-07T14:16:28;8.60;99.90
40255;DHT22;25973;52.368;4.940;2022-12-07T14:18:56;8.50;99.90
40255;DHT22;25973;52.368;4.940;2022-12-07T14:21:32;8.50;99.90
40255;DHT22;25973;52.368;4.940;2022-12-07T14:24:18;8.40;99.90
40255;DHT22;25973;52.368;4.940;2022-12-07T14:26:46;8.40;99.90
40255;DHT22;25973;52.368;4.940;2022-12-07T14:31:54;8.40;99.90
40255;DHT22;25973;52.368;4.940;2022-12-07T14:34:23;8.30;99.90
40255;DHT22;25973;52.368;4.940;2022-12-07T14:36:49;8.30;99.90
40255;DHT22;25973;52.368;4.940;2022-12-07T14:39:15;8.30;99.90
40255;DHT22;25973;52.368;4.940;2022-12-07T14:41:41;8.30;99.90
40255;DHT22;25973;52.368;4.940;2022-12-07T14:44:16;8.30;99.90
40255;DHT22;25973;52.368;4.940;2022-12-07T14:46:41;8.30;99.90
40255;DHT22;25973;52.368;4.940;2022-12-07T14:49:07;8.30;99.90
40255;DHT22;25973;52.368;4.940;2022-12-07T14:51:33;8.20;99.90
40255;DHT22;25973;52.368;4.940;2022-12-07T14:54:01;8.20;99.90
40255;DHT22;25973;52.368;4.940;2022-12-07T14:56:26;8.10;99.90
40255;DHT22;25973;52.368;4.940;2022-12-07T14:58:53;8.10;99.90
40255;DHT22;25973;52.368;4.940;2022-12-07T15:01:18;8.10;99.90
40255;DHT22;25973;52.368;4.940;2022-12-07T15:03:44;8.10;99.90
40255;DHT22;25973;52.368;4.940;2022-12-07T15:06:14;8.00;99.90
40255;DHT22;25973;52.368;4.940;2022-12-07T15:08:39;8.00;99.90
40255;DHT22;25973;52.368;4.940;2022-12-07T15:11:05;8.00;99.90
40255;DHT22;25973;52.368;4.940;2022-12-07T15:13:31;8.00;99.90
40255;DHT22;25973;52.368;4.940;2022-12-07T15:16:19;8.00;99.90
40255;DHT22;25973;52.368;4.940;2022-12-07T15:18:45;7.90;99.90
40255;DHT22;25973;52.368;4.940;2022-12-07T15:21:14;7.80;99.90
40255;DHT22;25973;52.368;4.940;2022-12-07T15:23:40;7.80;99.90
40255;DHT22;25973;52.368;4.940;2022-12-07T15:26:06;7.70;99.90
40255;DHT22;25973;52.368;4.940;2022-12-07T15:28:33;7.70;99.90
40255;DHT22;25973;52.368;4.940;2022-12-07T15:30:59;7.70;99.90
40255;DHT22;25973;52.368;4.940;2022-12-07T15:33:24;7.70;99.90
40255;DHT22;25973;52.368;4.940;2022-12-07T15:35:50;7.70;99.90
40255;DHT22;25973;52.368;4.940;2022-12-07T15:38:15;7.70;99.90
40255;DHT22;25973;52.368;4.940;2022-12-07T15:40:41;7.70;99.90
40255;DHT22;25973;52.368;4.940;2022-12-07T15:43:09;7.80;99.90
40255;DHT22;25973;52.368;4.940;2022-12-07T15:45:54;7.80;99.90
40255;DHT22;25973;52.368;4.940;2022-12-07T15:48:20;7.80;99.90
40255;DHT22;25973;52.368;4.940;2022-12-07T15:50:45;7.80;99.90
40255;DHT22;25973;52.368;4.940;2022-12-07T15:53:11;7.80;99.90
40255;DHT22;25973;52.368;4.940;2022-12-07T15:55:39;7.80;99.90
40255;DHT22;25973;52.368;4.940;2022-12-07T15:58:05;7.80;99.90
40255;DHT22;25973;52.368;4.940;2022-12-07T16:00:31;7.80;99.90
40255;DHT22;25973;52.368;4.940;2022-12-07T16:02:57;7.80;99.90
40255;DHT22;25973;52.368;4.940;2022-12-07T16:05:22;7.80;99.90
40255;DHT22;25973;52.368;4.940;2022-12-07T16:07:48;7.90;99.90
40255;DHT22;25973;52.368;4.940;2022-12-07T16:10:13;7.80;99.90
40255;DHT22;25973;52.368;4.940;2022-12-07T16:12:39;7.90;99.90
40255;DHT22;25973;52.368;4.940;2022-12-07T16:15:05;7.90;99.90
40255;DHT22;25973;52.368;4.940;2022-12-07T16:17:32;7.90;99.90
40255;DHT22;25973;52.368;4.940;2022-12-07T16:19:57;7.90;99.90
40255;DHT22;25973;52.368;4.940;2022-12-07T16:22:23;7.90;99.90
40255;DHT22;25973;52.368;4.940;2022-12-07T16:24:49;7.90;99.90
40255;DHT22;25973;52.368;4.940;2022-12-07T16:27:15;7.90;99.90
40255;DHT22;25973;52.368;4.940;2022-12-07T16:29:41;7.90;99.90
40255;DHT22;25973;52.368;4.940;2022-12-07T16:32:07;7.90;99.90
40255;DHT22;25973;52.368;4.940;2022-12-07T16:34:32;7.90;99.90
40255;DHT22;25973;52.368;4.940;2022-12-07T16:36:58;7.90;99.90
40255;DHT22;25973;52.368;4.940;2022-12-07T16:39:26;8.00;99.90
40255;DHT22;25973;52.368;4.940;2022-12-07T16:41:52;8.00;99.90
40255;DHT22;25973;52.368;4.940;2022-12-07T16:44:18;8.00;99.90
40255;DHT22;25973;52.368;4.940;2022-12-07T16:46:44;8.00;99.90
40255;DHT22;25973;52.368;4.940;2022-12-07T16:49:13;7.90;99.90
40255;DHT22;25973;52.368;4.940;2022-12-07T16:51:39;7.80;99.90
40255;DHT22;25973;52.368;4.940;2022-12-07T16:54:06;7.70;99.90
40255;DHT22;25973;52.368;4.940;2022-12-07T16:56:32;7.70;99.90
40255;DHT22;25973;52.368;4.940;2022-12-07T16:58:58;7.60;99.90
40255;DHT22;25973;52.368;4.940;2022-12-07T17:01:24;7.60;99.90
40255;DHT22;25973;52.368;4.940;2022-12-07T17:03:50;7.60;99.90
40255;DHT22;25973;52.368;4.940;2022-12-07T17:06:19;7.50;99.90
40255;DHT22;25973;52.368;4.940;2022-12-07T17:08:45;7.40;99.90
40255;DHT22;25973;52.368;4.940;2022-12-07T17:11:16;7.30;99.90
40255;DHT22;25973;52.368;4.940;2022-12-07T17:13:42;7.30;99.90
40255;DHT22;25973;52.368;4.940;2022-12-07T17:16:27;7.30;99.90
40255;DHT22;25973;52.368;4.940;2022-12-07T17:18:52;7.30;99.90
40255;DHT22;25973;52.368;4.940;2022-12-07T17:21:18;7.30;99.90
40255;DHT22;25973;52.368;4.940;2022-12-07T17:23:44;7.30;99.90
40255;DHT22;25973;52.368;4.940;2022-12-07T17:26:12;7.30;99.90
40255;DHT22;25973;52.368;4.940;2022-12-07T17:28:38;7.40;99.90
40255;DHT22;25973;52.368;4.940;2022-12-07T17:31:08;7.40;99.90
40255;DHT22;25973;52.368;4.940;2022-12-07T17:33:35;7.40;99.90
40255;DHT22;25973;52.368;4.940;2022-12-07T17:36:01;7.40;99.90
40255;DHT22;25973;52.368;4.940;2022-12-07T17:38:34;7.50;99.90
40255;DHT22;25973;52.368;4.940;2022-12-07T17:40:59;7.50;99.90
40255;DHT22;25973;52.368;4.940;2022-12-07T17:43:25;7.50;99.90
40255;DHT22;25973;52.368;4.940;2022-12-07T17:45:50;7.50;99.90
40255;DHT22;25973;52.368;4.940;2022-12-07T17:48:16;7.50;99.90
40255;DHT22;25973;52.368;4.940;2022-12-07T17:50:41;7.60;99.90
40255;DHT22;25973;52.368;4.940;2022-12-07T17:53:25;7.50;99.90
40255;DHT22;25973;52.368;4.940;2022-12-07T17:55:55;7.40;99.90
40255;DHT22;25973;52.368;4.940;2022-12-07T17:58:20;7.30;99.90
40255;DHT22;25973;52.368;4.940;2022-12-07T18:00:46;7.30;99.90
40255;DHT22;25973;52.368;4.940;2022-12-07T18:03:11;7.30;99.90
40255;DHT22;25973;52.368;4.940;2022-12-07T18:05:37;7.30;99.90
40255;DHT22;25973;52.368;4.940;2022-12-07T18:08:04;7.30;99.90
40255;DHT22;25973;52.368;4.940;2022-12-07T18:10:31;7.30;99.90